createdAt,value
2022-12-03T00:00:00.762Z,30.63
2022-12-03T00:02:28.710Z,26.23
2022-12-03T00:04:56.230Z,25.90
2022-12-03T00:07:23.806Z,26.00
2022-12-03T00:09:50.952Z,27.50
2022-12-03T00:12:18.407Z,26.50
2022-12-03T00:14:45.578Z,24.27
2022-12-03T00:17:13.022Z,24.75
2022-12-03T00:19:40.172Z,26.10
2022-12-03T00:22:07.590Z,26.10
2022-12-03T00:24:34.831Z,26.55
2022-12-03T00:27:02.634Z,25.42
2022-12-03T00:29:29.800Z,26.67
2022-12-03T00:31:57.259Z,25.50
2022-12-03T00:34:24.444Z,24.98
2022-12-03T00:36:51.904Z,25.83
2022-12-03T00:39:19.093Z,25.67
2022-12-03T00:41:46.551Z,26.75
2022-12-03T00:44:13.980Z,27.33
2022-12-03T00:46:41.718Z,24.17
2022-12-03T00:49:09.081Z,26.60
2022-12-03T00:51:36.575Z,25.90
2022-12-03T00:54:03.908Z,26.45
2022-12-03T00:56:31.392Z,27.95
2022-12-03T00:58:58.582Z,27.70
2022-12-03T01:01:26.108Z,25.92
2022-12-03T01:03:53.228Z,28.88
2022-12-03T01:06:21.338Z,28.00
2022-12-03T01:08:48.550Z,26.90
2022-12-03T01:11:34.408Z,26.67
2022-12-03T01:14:01.564Z,26.90
2022-12-03T01:16:29.044Z,26.35
2022-12-03T01:18:56.306Z,25.52
2022-12-03T01:21:23.843Z,25.65
2022-12-03T01:23:51.036Z,27.17
2022-12-03T01:26:18.536Z,26.30
2022-12-03T01:28:45.704Z,27.08
2022-12-03T01:31:31.841Z,26.95
2022-12-03T01:34:00.745Z,27.00
2022-12-03T01:36:28.202Z,27.55
2022-12-03T01:38:55.446Z,28.23
2022-12-03T01:41:24.832Z,28.35
2022-12-03T01:43:54.027Z,27.70
2022-12-03T01:46:25.811Z,25.50
2022-12-03T01:48:54.918Z,26.88
2022-12-03T01:51:22.728Z,29.13
2022-12-03T01:53:51.502Z,27.00
2022-12-03T01:56:19.437Z,29.73
2022-12-03T01:58:47.635Z,29.05
2022-12-03T02:01:19.082Z,28.88
2022-12-03T02:03:46.606Z,26.55
2022-12-03T02:06:20.431Z,26.83
2022-12-03T02:08:48.625Z,28.45
2022-12-03T02:11:31.868Z,31.85
2022-12-03T02:14:06.571Z,28.40
2022-12-03T02:16:36.543Z,26.88
2022-12-03T02:19:08.674Z,27.98
2022-12-03T02:21:40.291Z,27.02
2022-12-03T02:24:36.783Z,25.27
2022-12-03T02:27:04.481Z,25.83
2022-12-03T02:29:31.649Z,24.27
2022-12-03T02:31:59.241Z,30.67
2022-12-03T02:34:43.981Z,24.08
2022-12-03T02:37:17.721Z,26.02
2022-12-03T02:39:50.440Z,26.70
2022-12-03T02:42:37.781Z,24.80
2022-12-03T02:45:28.119Z,25.95
2022-12-03T02:48:06.068Z,27.15
2022-12-03T02:50:37.274Z,25.45
2022-12-03T02:53:09.280Z,29.33
2022-12-03T02:55:37.693Z,28.80
2022-12-03T02:58:05.995Z,26.80
2022-12-03T03:00:35.546Z,25.77
2022-12-03T03:03:04.605Z,26.10
2022-12-03T03:05:33.457Z,25.23
2022-12-03T03:08:01.761Z,23.85
2022-12-03T03:10:30.718Z,25.90
2022-12-03T03:12:58.465Z,25.58
2022-12-03T03:15:25.679Z,23.95
2022-12-03T03:17:53.315Z,24.20
2022-12-03T03:20:20.791Z,25.02
2022-12-03T03:22:48.265Z,23.85
2022-12-03T03:25:18.734Z,26.33
2022-12-03T03:27:46.255Z,30.20
2022-12-03T03:30:14.346Z,25.13
2022-12-03T03:32:42.907Z,25.77
2022-12-03T03:35:11.929Z,24.85
2022-12-03T03:37:39.565Z,24.20
2022-12-03T03:40:07.899Z,25.63
2022-12-03T03:42:36.088Z,30.52
2022-12-03T03:45:03.513Z,25.20
2022-12-03T03:47:31.041Z,29.23
2022-12-03T03:49:58.647Z,26.83
2022-12-03T03:52:26.408Z,24.08
2022-12-03T03:54:53.821Z,24.02
2022-12-03T03:57:21.573Z,23.95
2022-12-03T03:59:48.900Z,24.10
2022-12-03T04:02:21.153Z,24.38
2022-12-03T04:04:49.452Z,24.65
2022-12-03T04:07:17.139Z,24.40
2022-12-03T04:09:44.641Z,26.77
2022-12-03T04:12:31.615Z,22.95
2022-12-03T04:14:59.392Z,22.58
2022-12-03T04:17:27.257Z,26.25
2022-12-03T04:19:54.449Z,26.15
2022-12-03T04:22:39.956Z,25.70
2022-12-03T04:25:28.528Z,24.60
2022-12-03T04:28:14.552Z,23.38
2022-12-03T04:30:41.804Z,26.55
2022-12-03T04:33:27.943Z,27.10
2022-12-03T04:35:55.238Z,24.45
2022-12-03T04:38:22.889Z,24.92
2022-12-03T04:41:01.823Z,27.02
2022-12-03T04:43:33.597Z,26.58
2022-12-03T04:46:01.447Z,20.45
2022-12-03T04:48:30.477Z,26.30
2022-12-03T04:50:57.927Z,25.95
2022-12-03T04:53:25.429Z,27.77
2022-12-03T04:55:52.551Z,28.85
2022-12-03T04:58:20.085Z,28.95
2022-12-03T05:00:47.389Z,26.88
2022-12-03T05:03:15.026Z,25.50
2022-12-03T05:05:42.184Z,26.48
2022-12-03T05:08:09.664Z,26.10
2022-12-03T05:10:36.926Z,25.77
2022-12-03T05:13:04.414Z,28.40
2022-12-03T05:15:31.663Z,25.30
2022-12-03T05:17:59.106Z,23.10
2022-12-03T05:20:41.342Z,25.88
2022-12-03T05:23:10.609Z,22.92
2022-12-03T05:25:37.875Z,22.48
2022-12-03T05:28:06.326Z,23.42
2022-12-03T05:30:34.410Z,24.98
2022-12-03T05:33:02.036Z,24.17
2022-12-03T05:35:29.210Z,26.25
2022-12-03T05:37:56.720Z,24.15
2022-12-03T05:40:24.041Z,25.45
2022-12-03T05:42:54.322Z,25.63
2022-12-03T05:45:26.281Z,26.15
2022-12-03T05:47:55.380Z,27.55
2022-12-03T05:50:24.498Z,25.15
2022-12-03T05:52:52.429Z,24.02
2022-12-03T05:55:19.738Z,25.50
2022-12-03T05:57:47.455Z,26.00
2022-12-03T06:00:18.541Z,25.05
2022-12-03T06:02:46.322Z,28.63
2022-12-03T06:05:15.034Z,24.45
2022-12-03T06:07:43.073Z,23.48
2022-12-03T06:10:13.687Z,26.08
2022-12-03T06:12:41.593Z,27.65
2022-12-03T06:15:09.810Z,27.00
2022-12-03T06:17:37.363Z,26.92
2022-12-03T06:20:05.230Z,29.38
2022-12-03T06:22:32.729Z,23.70
2022-12-03T06:25:05.099Z,28.67
2022-12-03T06:27:34.317Z,25.55
2022-12-03T06:30:01.974Z,25.10
2022-12-03T06:32:29.452Z,25.23
2022-12-03T06:34:56.779Z,25.85
2022-12-03T06:37:24.310Z,29.33
2022-12-03T06:39:51.517Z,25.10
2022-12-03T06:42:18.955Z,28.33
2022-12-03T06:44:46.085Z,25.63
2022-12-03T06:47:13.517Z,25.10
2022-12-03T06:49:40.735Z,26.08
2022-12-03T06:52:08.172Z,26.42
2022-12-03T06:54:35.549Z,24.55
2022-12-03T06:57:03.043Z,24.38
2022-12-03T06:59:34.129Z,25.30
2022-12-03T07:02:01.750Z,26.42
2022-12-03T07:04:28.901Z,23.45
2022-12-03T07:06:56.366Z,27.33
2022-12-03T07:09:23.598Z,26.70
2022-12-03T07:11:51.044Z,26.08
2022-12-03T07:14:18.216Z,26.60
2022-12-03T07:16:45.955Z,27.50
2022-12-03T07:19:13.454Z,27.17
2022-12-03T07:21:41.013Z,28.48
2022-12-03T07:24:08.894Z,28.70
2022-12-03T07:26:36.470Z,23.83
2022-12-03T07:29:03.817Z,27.13
2022-12-03T07:31:31.445Z,26.75
2022-12-03T07:33:58.679Z,25.05
2022-12-03T07:36:26.483Z,24.27
2022-12-03T07:38:53.864Z,26.63
2022-12-03T07:41:21.659Z,25.50
2022-12-03T07:43:49.321Z,27.00
2022-12-03T07:46:17.529Z,24.00
2022-12-03T07:48:44.749Z,29.60
2022-12-03T07:51:15.168Z,25.88
2022-12-03T07:53:43.050Z,28.17
2022-12-03T07:56:11.133Z,26.73
2022-12-03T07:58:38.305Z,24.38
2022-12-03T08:01:06.057Z,28.67
2022-12-03T08:03:33.305Z,29.45
2022-12-03T08:06:00.997Z,25.92
2022-12-03T08:08:28.196Z,26.30
2022-12-03T08:10:55.666Z,25.40
2022-12-03T08:13:22.910Z,28.27
2022-12-03T08:15:52.313Z,25.30
2022-12-03T08:18:22.122Z,31.13
2022-12-03T08:20:51.570Z,26.42
2022-12-03T08:23:24.549Z,25.13
2022-12-03T08:25:53.145Z,26.83
2022-12-03T08:28:28.153Z,25.98
2022-12-03T08:31:33.147Z,27.23
2022-12-03T08:34:13.842Z,27.77
2022-12-03T08:36:41.390Z,28.65
2022-12-03T08:39:22.462Z,28.92
2022-12-03T08:42:16.565Z,24.17
2022-12-03T08:44:43.782Z,23.35
2022-12-03T08:47:22.729Z,25.85
2022-12-03T08:50:25.380Z,26.10
2022-12-03T08:52:54.908Z,27.27
2022-12-03T08:55:39.219Z,26.40
2022-12-03T08:58:21.922Z,26.42
2022-12-03T09:00:54.956Z,24.10
2022-12-03T09:03:22.522Z,22.88
2022-12-03T09:05:49.696Z,30.98
2022-12-03T09:08:17.322Z,26.63
2022-12-03T09:10:44.549Z,29.70
2022-12-03T09:13:12.001Z,26.25
2022-12-03T09:15:39.166Z,26.02
2022-12-03T09:18:06.733Z,26.00
2022-12-03T09:20:33.877Z,24.48
2022-12-03T09:23:01.365Z,25.33
2022-12-03T09:25:28.626Z,25.08
2022-12-03T09:27:56.153Z,25.23
2022-12-03T09:30:23.426Z,24.83
2022-12-03T09:32:50.965Z,23.85
2022-12-03T09:35:18.144Z,24.85
2022-12-03T09:37:45.601Z,25.55
2022-12-03T09:40:13.351Z,24.67
2022-12-03T09:42:41.363Z,25.30
2022-12-03T09:45:12.310Z,25.27
2022-12-03T09:47:43.807Z,21.08
2022-12-03T09:50:14.490Z,21.90
2022-12-03T09:52:42.056Z,22.15
2022-12-03T09:55:17.536Z,24.42
2022-12-03T09:57:45.059Z,26.88
2022-12-03T10:00:21.853Z,25.38
2022-12-03T10:02:51.414Z,28.25
2022-12-03T10:05:22.551Z,26.85
2022-12-03T10:07:51.735Z,27.08
2022-12-03T10:10:24.098Z,25.15
2022-12-03T10:12:52.569Z,27.85
2022-12-03T10:15:23.595Z,28.13
2022-12-03T10:17:53.325Z,31.05
2022-12-03T10:20:23.876Z,28.35
2022-12-03T10:22:51.403Z,29.35
2022-12-03T10:25:21.551Z,29.10
2022-12-03T10:27:58.848Z,27.33
2022-12-03T10:30:29.702Z,27.27
2022-12-03T10:32:59.236Z,22.13
2022-12-03T10:35:38.544Z,29.95
2022-12-03T10:38:18.076Z,28.77
2022-12-03T10:40:46.087Z,26.27
2022-12-03T10:43:19.522Z,25.83
2022-12-03T10:45:50.771Z,28.90
2022-12-03T10:48:21.245Z,28.90
2022-12-03T10:50:50.522Z,25.88
2022-12-03T10:53:19.468Z,27.33
2022-12-03T10:55:48.376Z,28.42
2022-12-03T10:58:42.375Z,27.48
2022-12-03T11:01:18.693Z,26.50
2022-12-03T11:03:47.124Z,29.52
2022-12-03T11:06:22.887Z,26.77
2022-12-03T11:08:57.561Z,28.02
2022-12-03T11:11:29.156Z,28.70
2022-12-03T11:13:59.178Z,28.33
2022-12-03T11:16:41.687Z,28.20
2022-12-03T11:19:20.036Z,28.83
2022-12-03T11:22:05.524Z,28.20
2022-12-03T11:24:35.542Z,28.88
2022-12-03T11:27:02.785Z,29.63
2022-12-03T11:29:48.636Z,30.50
2022-12-03T11:32:43.791Z,30.00
2022-12-03T11:35:38.141Z,30.13
2022-12-03T11:38:52.416Z,33.15
2022-12-03T11:41:22.871Z,26.35
2022-12-03T11:43:53.234Z,28.92
2022-12-03T11:46:46.573Z,27.27
2022-12-03T11:49:29.911Z,25.00
2022-12-03T11:52:00.447Z,26.58
2022-12-03T11:54:28.097Z,27.65
2022-12-03T11:56:56.421Z,28.38
2022-12-03T11:59:23.750Z,27.65
2022-12-03T12:01:51.393Z,26.60
2022-12-03T12:04:38.002Z,28.48
2022-12-03T12:07:05.521Z,27.00
2022-12-03T12:09:55.349Z,28.08
2022-12-03T12:12:51.046Z,26.88
2022-12-03T12:15:43.393Z,25.80
2022-12-03T12:18:41.631Z,23.70
2022-12-03T12:21:43.068Z,22.45
2022-12-03T12:24:40.335Z,23.60
2022-12-03T12:27:15.961Z,23.25
2022-12-03T12:29:47.262Z,24.90
2022-12-03T12:32:17.592Z,21.30
2022-12-03T12:34:48.801Z,25.50
2022-12-03T12:37:44.932Z,29.30
2022-12-03T12:40:16.466Z,26.60
2022-12-03T12:42:55.207Z,26.33
2022-12-03T12:45:34.559Z,29.88
2022-12-03T12:48:05.841Z,27.33
2022-12-03T12:50:33.763Z,26.80
2022-12-03T12:53:11.760Z,26.63
2022-12-03T12:55:39.518Z,25.92
2022-12-03T12:58:19.678Z,25.80
2022-12-03T13:00:51.360Z,26.13
2022-12-03T13:03:21.541Z,24.88
2022-12-03T13:05:51.167Z,27.77
2022-12-03T13:08:21.472Z,27.30
2022-12-03T13:10:51.864Z,30.70
2022-12-03T13:13:24.833Z,31.17
2022-12-03T13:16:34.206Z,30.95
2022-12-03T13:19:02.194Z,29.92
2022-12-03T13:21:40.998Z,33.03
2022-12-03T13:24:29.892Z,33.85
2022-12-03T13:26:59.131Z,31.63
2022-12-03T13:29:28.196Z,32.75
2022-12-03T13:31:58.725Z,30.77
2022-12-03T13:34:31.305Z,30.52
2022-12-03T13:37:00.670Z,29.05
2022-12-03T13:39:30.317Z,28.90
2022-12-03T13:42:29.358Z,30.95
2022-12-03T13:44:56.601Z,28.83
2022-12-03T13:47:24.265Z,29.75
2022-12-03T13:49:58.165Z,30.35
2022-12-03T13:52:26.053Z,28.92
2022-12-03T13:54:56.192Z,30.48
2022-12-03T13:57:23.751Z,31.70
2022-12-03T13:59:51.020Z,30.23
2022-12-03T14:02:18.713Z,32.55
2022-12-03T14:04:46.389Z,30.63
2022-12-03T14:07:13.825Z,32.05
2022-12-03T14:09:41.733Z,30.10
2022-12-03T14:12:27.303Z,33.45
2022-12-03T14:14:54.727Z,34.92
2022-12-03T14:17:22.257Z,33.97
2022-12-03T14:19:49.990Z,35.83
2022-12-03T14:22:19.355Z,31.63
2022-12-03T14:24:46.595Z,33.78
2022-12-03T14:27:14.097Z,33.55
2022-12-03T14:29:41.248Z,30.00
2022-12-03T14:32:08.788Z,31.85
2022-12-03T14:34:36.108Z,30.90
2022-12-03T14:37:03.615Z,31.42
2022-12-03T14:39:30.918Z,31.85
2022-12-03T14:42:13.469Z,35.95
2022-12-03T14:44:45.151Z,31.88
2022-12-03T14:49:40.789Z,30.27
2022-12-03T14:52:12.209Z,31.85
2022-12-03T14:54:42.682Z,27.85
2022-12-03T14:57:15.199Z,30.92
2022-12-03T15:02:11.691Z,32.28
2022-12-03T15:04:40.102Z,34.50
2022-12-03T15:07:08.487Z,30.98
2022-12-03T15:09:35.798Z,38.75
2022-12-03T15:12:04.318Z,30.50
2022-12-03T15:14:31.596Z,34.17
2022-12-03T15:16:59.144Z,33.22
2022-12-03T15:19:26.509Z,35.33
2022-12-03T15:21:54.001Z,35.30
2022-12-03T15:24:21.299Z,32.38
2022-12-03T15:26:49.693Z,33.10
2022-12-03T15:29:16.885Z,36.55
2022-12-03T15:31:44.690Z,33.78
2022-12-03T15:34:11.893Z,35.55
2022-12-03T15:36:39.409Z,37.85
2022-12-03T15:39:06.585Z,34.42
2022-12-03T15:41:34.088Z,35.08
2022-12-03T15:44:02.252Z,36.17
2022-12-03T15:46:31.523Z,36.38
2022-12-03T15:48:59.696Z,34.55
2022-12-03T15:51:27.697Z,36.13
2022-12-03T15:53:54.937Z,35.78
2022-12-03T15:56:22.399Z,35.40
2022-12-03T15:58:49.668Z,34.85
2022-12-03T16:01:18.464Z,32.60
2022-12-03T16:03:45.884Z,33.60
2022-12-03T16:06:14.804Z,33.75
2022-12-03T16:08:42.231Z,35.42
2022-12-03T16:11:09.829Z,37.78
2022-12-03T16:13:37.082Z,36.33
2022-12-03T16:16:04.858Z,38.08
2022-12-03T16:18:32.261Z,38.53
2022-12-03T16:20:59.726Z,34.70
2022-12-03T16:23:26.935Z,36.78
2022-12-03T16:25:54.586Z,36.67
2022-12-03T16:28:21.875Z,36.22
2022-12-03T16:30:49.416Z,37.72
2022-12-03T16:33:16.699Z,40.55
2022-12-03T16:35:44.687Z,37.88
2022-12-03T16:38:11.860Z,38.40
2022-12-03T16:40:39.393Z,37.17
2022-12-03T16:43:08.467Z,38.97
2022-12-03T16:46:01.879Z,37.65
2022-12-03T16:48:30.101Z,41.28
2022-12-03T16:50:57.608Z,36.42
2022-12-03T16:53:25.734Z,34.85
2022-12-03T16:55:53.359Z,36.10
2022-12-03T16:58:21.546Z,35.88
2022-12-03T17:00:50.229Z,38.03
2022-12-03T17:03:18.019Z,36.28
2022-12-03T17:05:46.576Z,32.67
2022-12-03T17:08:14.649Z,37.15
2022-12-03T17:10:42.956Z,37.22
2022-12-03T17:13:10.795Z,38.72
2022-12-03T17:15:39.734Z,37.58
2022-12-03T17:18:08.267Z,39.47
2022-12-03T17:20:35.996Z,35.13
2022-12-03T17:23:03.872Z,41.25
2022-12-03T17:25:31.464Z,36.20
2022-12-03T17:28:13.792Z,39.13
2022-12-03T17:30:41.394Z,37.85
2022-12-03T17:33:08.539Z,36.88
2022-12-03T17:35:36.827Z,38.53
2022-12-03T17:38:04.031Z,38.85
2022-12-03T17:40:31.552Z,40.10
2022-12-03T17:42:58.730Z,39.70
2022-12-03T17:45:26.753Z,39.13
2022-12-03T17:47:53.930Z,39.58
2022-12-03T17:50:21.440Z,39.80
2022-12-03T17:52:48.614Z,40.17
2022-12-03T17:55:23.911Z,40.00
2022-12-03T17:57:53.603Z,38.75
2022-12-03T18:00:21.210Z,37.50
2022-12-03T18:02:48.491Z,41.38
2022-12-03T18:05:16.142Z,37.15
2022-12-03T18:07:43.449Z,39.38
2022-12-03T18:10:11.908Z,37.90
2022-12-03T18:12:39.224Z,38.53
2022-12-03T18:15:07.360Z,39.40
2022-12-03T18:17:34.593Z,41.78
2022-12-03T18:20:02.611Z,42.03
2022-12-03T18:22:30.897Z,38.25
2022-12-03T18:24:58.595Z,38.25
2022-12-03T18:27:26.001Z,37.22
2022-12-03T18:29:53.650Z,38.90
2022-12-03T18:32:28.753Z,38.83
2022-12-03T18:34:58.040Z,37.83
2022-12-03T18:37:28.370Z,35.15
2022-12-03T18:39:57.899Z,39.75
2022-12-03T18:42:26.141Z,38.45
2022-12-03T18:44:55.781Z,37.03
2022-12-03T18:47:27.093Z,39.75
2022-12-03T18:49:55.592Z,38.97
2022-12-03T18:52:25.004Z,41.47
2022-12-03T18:54:53.014Z,39.28
2022-12-03T18:57:20.233Z,37.72
2022-12-03T18:59:47.781Z,37.97
2022-12-03T19:02:53.798Z,36.90
2022-12-03T19:05:05.594Z,38.20
2022-12-03T19:07:32.812Z,40.13
2022-12-03T19:10:00.314Z,34.53
2022-12-03T19:12:27.636Z,39.53
2022-12-03T19:14:55.244Z,34.30
2022-12-03T19:17:22.525Z,38.42
2022-12-03T19:19:50.134Z,39.47
2022-12-03T19:22:17.446Z,35.88
2022-12-03T19:24:45.104Z,37.85
2022-12-03T19:27:12.338Z,36.03
2022-12-03T19:29:40.013Z,37.45
2022-12-03T19:32:07.221Z,37.97
2022-12-03T19:34:35.114Z,39.28
2022-12-03T19:37:02.282Z,37.95
2022-12-03T19:39:29.783Z,35.95
2022-12-03T19:41:56.966Z,35.95
2022-12-03T19:44:24.540Z,37.88
2022-12-03T19:46:51.798Z,36.30
2022-12-03T19:49:21.370Z,37.15
2022-12-03T19:51:49.091Z,37.92
2022-12-03T19:54:17.758Z,34.50
2022-12-03T19:56:44.984Z,35.72
2022-12-03T19:59:13.603Z,37.47
2022-12-03T20:01:43.192Z,34.45
2022-12-03T20:04:12.863Z,32.72
2022-12-03T20:06:40.163Z,36.78
2022-12-03T20:09:13.512Z,37.05
2022-12-03T20:11:42.009Z,34.78
2022-12-03T20:14:12.083Z,35.85
2022-12-03T20:16:39.921Z,36.13
2022-12-03T20:19:10.694Z,36.22
2022-12-03T20:21:39.364Z,27.40
2022-12-03T20:24:08.072Z,34.30
2022-12-03T20:26:35.347Z,35.03
2022-12-03T20:29:02.821Z,33.67
2022-12-03T20:31:31.546Z,37.63
2022-12-03T20:34:01.732Z,35.55
2022-12-03T20:36:31.032Z,35.92
2022-12-03T20:39:02.607Z,37.03
2022-12-03T20:41:30.048Z,35.30
2022-12-03T20:43:57.551Z,33.88
2022-12-03T20:46:27.332Z,36.10
2022-12-03T20:48:56.073Z,34.67
2022-12-03T20:51:26.752Z,34.80
2022-12-03T20:53:54.631Z,34.60
2022-12-03T20:56:28.168Z,34.85
2022-12-03T20:58:55.680Z,34.47
2022-12-03T21:01:26.493Z,33.70
2022-12-03T21:03:56.152Z,35.42
2022-12-03T21:06:26.285Z,38.05
2022-12-03T21:08:54.999Z,33.80
2022-12-03T21:11:25.011Z,35.30
2022-12-03T21:13:54.387Z,33.92
2022-12-03T21:16:45.507Z,35.72
2022-12-03T21:19:12.511Z,35.55
2022-12-03T21:21:39.708Z,34.90
2022-12-03T21:24:07.618Z,37.10
2022-12-03T21:26:34.843Z,34.40
2022-12-03T21:29:02.296Z,38.22
2022-12-03T21:31:31.615Z,38.65
2022-12-03T21:33:59.223Z,39.13
2022-12-03T21:36:26.413Z,36.22
2022-12-03T21:38:53.848Z,37.13
2022-12-03T21:41:21.052Z,36.83
2022-12-03T21:43:48.532Z,36.72
2022-12-03T21:47:10.775Z,38.83
2022-12-03T21:49:05.007Z,38.15
2022-12-03T21:51:32.202Z,36.45
2022-12-03T21:53:59.691Z,37.22
2022-12-03T21:56:27.144Z,35.17
2022-12-03T21:58:54.903Z,40.10
2022-12-03T22:01:24.174Z,38.30
2022-12-03T22:03:52.043Z,36.08
2022-12-03T22:06:19.811Z,38.30
2022-12-03T22:08:47.633Z,34.70
2022-12-03T22:11:18.130Z,37.25
2022-12-03T22:13:46.175Z,37.20
2022-12-03T22:16:15.827Z,36.78
2022-12-03T22:18:43.771Z,36.65
2022-12-03T22:21:13.764Z,38.10
2022-12-03T22:23:41.476Z,37.97
2022-12-03T22:26:11.946Z,37.28
2022-12-03T22:28:43.359Z,37.30
2022-12-03T22:31:10.942Z,36.03
2022-12-03T22:33:39.336Z,36.60
2022-12-03T22:36:13.376Z,35.05
2022-12-03T22:38:45.769Z,37.10
2022-12-03T22:41:14.349Z,35.67
2022-12-03T22:43:41.885Z,34.67
2022-12-03T22:46:13.336Z,34.13
2022-12-03T22:48:42.858Z,35.95
2022-12-03T22:51:13.986Z,35.80
2022-12-03T22:53:41.532Z,30.75
2022-12-03T22:56:09.029Z,33.70
2022-12-03T22:58:38.633Z,34.70
2022-12-03T23:01:06.811Z,35.63
2022-12-03T23:03:34.441Z,37.22
2022-12-03T23:06:01.674Z,36.70
2022-12-03T23:08:29.134Z,39.22
2022-12-03T23:11:01.878Z,38.22
2022-12-03T23:13:30.750Z,39.25
2022-12-03T23:15:58.384Z,37.08
2022-12-03T23:18:26.060Z,37.97
2022-12-03T23:20:55.555Z,35.28
2022-12-03T23:23:25.799Z,38.67
2022-12-03T23:26:12.498Z,35.72
2022-12-03T23:28:41.455Z,38.70
2022-12-03T23:31:26.891Z,35.92
2022-12-03T23:33:55.925Z,36.72
2022-12-03T23:36:24.801Z,34.92
2022-12-03T23:38:52.323Z,37.33
2022-12-03T23:41:21.504Z,36.28
2022-12-03T23:43:49.148Z,38.05
2022-12-03T23:46:22.201Z,35.20
2022-12-03T23:48:51.164Z,37.40
2022-12-03T23:51:21.921Z,37.42
2022-12-03T23:53:49.825Z,36.77
2022-12-03T23:56:19.669Z,38.53
2022-12-03T23:58:47.762Z,37.45
